METAR Data
IDs: Format: Raw Decoded Include TAF

Data at: 0301 UTC 25 Feb 2021

KFUL 250253Z 00000KT 10SM CLR 16/11 A3000 RMK AO2 SLP157 T01560106 53008